Time;durP1;ratioP1;P1;durP2;ratioP2;P2;SDS_P1;SDS_P2;PMS_P1;PMS_P2;Temp;Humidity;BMP_temperature;BMP_pressure;BME280_temperature;BME280_humidity;BME280_pressure;Samples;Min_cycle;Max_cycle;Signal;HPM_P1;HPM_P2
2022/10/13 00:00:56;;;;;;;;;;;27.50;95.30;;;;;;5085173;27;19937;-45
2022/10/13 00:03:23;;;;;;;;;;;27.50;95.40;;;;;;5060530;28;19995;-46
2022/10/13 00:05:49;;;;;;;;;;;27.50;95.40;;;;;;5087358;27;19917;-43
2022/10/13 00:08:18;;;;;;;;;;;27.40;95.30;;;;;;5060272;28;19912;-44
2022/10/13 00:10:44;;;;;;;;;;;27.40;95.30;;;;;;5067999;27;19920;-51
2022/10/13 00:13:11;;;;;;;;;;;27.40;95.20;;;;;;5147542;27;19907;-49
2022/10/13 00:15:41;;;;;;;;;;;27.40;95.30;;;;;;5090034;27;19916;-45
2022/10/13 00:18:08;;;;;;;;;;;27.40;95.30;;;;;;5114260;27;20128;-46
2022/10/13 00:20:34;;;;;;;;;;;27.40;95.40;;;;;;5136760;27;19949;-42
2022/10/13 00:23:01;;;;;;;;;;;27.40;95.50;;;;;;5044722;28;19978;-49
2022/10/13 00:25:27;;;;;;;;;;;27.40;95.50;;;;;;5049135;27;19944;-42
2022/10/13 00:27:53;;;;;;;;;;;27.30;95.40;;;;;;5102489;27;19914;-43
2022/10/13 00:30:21;;;;;;;;;;;27.30;95.40;;;;;;5128951;27;19935;-44
2022/10/13 00:32:47;;;;;;;;;;;27.30;95.40;;;;;;5083084;27;20003;-45
2022/10/13 00:35:13;;;;;;;;;;;27.30;95.40;;;;;;5096859;27;19911;-46
2022/10/13 00:37:39;;;;;;;;;;;27.30;95.40;;;;;;5139172;27;19906;-50
2022/10/13 00:40:06;;;;;;;;;;;27.30;95.40;;;;;;5161775;27;19911;-51
2022/10/13 00:42:32;;;;;;;;;;;27.30;95.50;;;;;;5046733;28;19983;-45
2022/10/13 00:45:04;;;;;;;;;;;27.30;95.50;;;;;;5061408;27;19985;-44
2022/10/13 00:47:38;;;;;;;;;;;27.30;95.40;;;;;;5031158;28;19927;-43
2022/10/13 00:50:07;;;;;;;;;;;27.30;95.40;;;;;;5043752;28;19913;-44
2022/10/13 00:52:33;;;;;;;;;;;27.20;95.40;;;;;;5044361;28;19909;-43
2022/10/13 00:55:00;;;;;;;;;;;27.20;95.40;;;;;;5043654;28;19905;-50
2022/10/13 00:57:26;;;;;;;;;;;27.20;95.40;;;;;;5112999;28;19928;-50
2022/10/13 00:59:52;;;;;;;;;;;27.20;95.40;;;;;;5043184;28;19909;-47
2022/10/13 01:02:19;;;;;;;;;;;27.10;95.40;;;;;;5048111;28;19917;-43
2022/10/13 01:04:46;;;;;;;;;;;27.10;95.40;;;;;;5063486;28;19968;-46
2022/10/13 01:07:13;;;;;;;;;;;27.10;95.40;;;;;;5062813;28;19913;-53
2022/10/13 01:09:41;;;;;;;;;;;27.10;95.40;;;;;;5063424;28;20109;-45
2022/10/13 01:12:13;;;;;;;;;;;27.10;95.50;;;;;;5055735;28;19909;-44
2022/10/13 01:14:42;;;;;;;;;;;27.10;95.50;;;;;;5044389;28;20132;-45
2022/10/13 01:17:24;;;;;;;;;;;27.10;95.50;;;;;;5048882;27;19909;-42
2022/10/13 01:20:09;;;;;;;;;;;27.10;95.50;;;;;;5062745;28;19979;-49
2022/10/13 01:22:44;;;;;;;;;;;27.00;95.40;;;;;;5062657;27;19936;-52
2022/10/13 01:25:29;;;;;;;;;;;27.00;95.30;;;;;;5063727;28;19920;-45
2022/10/13 01:28:18;;;;;;;;;;;27.00;95.30;;;;;;5063714;27;19991;-49
2022/10/13 01:30:47;;;;;;;;;;;27.10;95.20;;;;;;5065547;28;19912;-47
2022/10/13 01:33:19;;;;;;;;;;;27.10;95.20;;;;;;5063377;27;19921;-45
2022/10/13 01:35:47;;;;;;;;;;;27.00;95.20;;;;;;5063410;28;19913;-44
2022/10/13 01:38:14;;;;;;;;;;;27.00;95.20;;;;;;5063527;27;20192;-42
2022/10/13 01:40:40;;;;;;;;;;;27.00;95.20;;;;;;5063483;28;20113;-46
2022/10/13 01:43:19;;;;;;;;;;;27.10;95.20;;;;;;5063652;27;19913;-53
2022/10/13 01:45:57;;;;;;;;;;;27.00;95.20;;;;;;5061999;28;20109;-47
2022/10/13 01:48:25;;;;;;;;;;;27.00;95.30;;;;;;5063345;27;19967;-44
2022/10/13 01:50:52;;;;;;;;;;;27.00;95.30;;;;;;5063276;28;19913;-43
2022/10/13 01:53:19;;;;;;;;;;;27.00;95.30;;;;;;5063153;27;19928;-46
2022/10/13 01:55:54;;;;;;;;;;;27.00;95.40;;;;;;5063007;28;20187;-44
2022/10/13 01:58:24;;;;;;;;;;;26.90;95.40;;;;;;5062985;27;19909;-48
2022/10/13 02:01:01;;;;;;;;;;;26.90;95.30;;;;;;5061987;28;19916;-47
2022/10/13 02:03:36;;;;;;;;;;;26.90;95.30;;;;;;5062998;27;20186;-49
2022/10/13 02:06:13;;;;;;;;;;;26.90;95.20;;;;;;5062992;28;19916;-48
2022/10/13 02:08:39;;;;;;;;;;;26.90;95.30;;;;;;5060706;28;19916;-47
2022/10/13 02:11:25;;;;;;;;;;;26.90;95.40;;;;;;5054388;28;19919;-43
2022/10/13 02:14:27;;;;;;;;;;;26.90;95.30;;;;;;5057791;27;19909;-49
2022/10/13 02:16:55;;;;;;;;;;;26.90;95.20;;;;;;5080639;28;19920;-44
2022/10/13 02:19:22;;;;;;;;;;;26.90;95.40;;;;;;5050853;28;19923;-44
2022/10/13 02:21:48;;;;;;;;;;;26.90;95.40;;;;;;5101452;27;19917;-46
2022/10/13 02:24:15;;;;;;;;;;;26.80;95.30;;;;;;5132631;27;19907;-50
2022/10/13 02:26:41;;;;;;;;;;;26.80;95.60;;;;;;5167860;27;20000;-49
2022/10/13 02:29:11;;;;;;;;;;;26.80;95.20;;;;;;5149447;27;19903;-48
2022/10/13 02:31:37;;;;;;;;;;;26.80;95.00;;;;;;5167209;27;19960;-48
2022/10/13 02:34:04;;;;;;;;;;;26.90;94.90;;;;;;5168123;27;19911;-46
2022/10/13 02:36:30;;;;;;;;;;;26.90;94.90;;;;;;5166870;27;20103;-49
2022/10/13 02:39:05;;;;;;;;;;;26.80;94.70;;;;;;5167413;27;19948;-53
2022/10/13 02:41:31;;;;;;;;;;;26.80;94.60;;;;;;5171543;27;20191;-50
2022/10/13 02:43:58;;;;;;;;;;;26.80;94.50;;;;;;5167529;27;19911;-47
2022/10/13 02:46:24;;;;;;;;;;;26.80;94.30;;;;;;5167725;27;19907;-46
2022/10/13 02:48:51;;;;;;;;;;;26.80;94.40;;;;;;5167564;27;19908;-50
2022/10/13 02:51:17;;;;;;;;;;;26.80;94.30;;;;;;5167531;27;19955;-45
2022/10/13 02:53:43;;;;;;;;;;;26.80;94.30;;;;;;5167692;27;20179;-46
2022/10/13 02:56:09;;;;;;;;;;;26.80;94.20;;;;;;5167196;27;19968;-49
2022/10/13 02:58:35;;;;;;;;;;;26.70;94.10;;;;;;5167548;27;19917;-50
2022/10/13 03:01:13;;;;;;;;;;;26.70;94.10;;;;;;5167443;27;19911;-50
2022/10/13 03:03:39;;;;;;;;;;;26.70;94.20;;;;;;5166976;27;19911;-45
2022/10/13 03:06:06;;;;;;;;;;;26.70;94.00;;;;;;5167277;27;20195;-46
2022/10/13 03:08:32;;;;;;;;;;;26.70;94.00;;;;;;5167370;27;20179;-45
2022/10/13 03:10:59;;;;;;;;;;;26.70;93.80;;;;;;5167035;27;19978;-45
2022/10/13 03:13:25;;;;;;;;;;;26.70;93.90;;;;;;5167299;27;19903;-50
2022/10/13 03:15:51;;;;;;;;;;;26.70;93.90;;;;;;5166981;27;20107;-46
2022/10/13 03:18:17;;;;;;;;;;;26.70;93.90;;;;;;5166915;27;19914;-49
2022/10/13 03:20:44;;;;;;;;;;;26.70;93.80;;;;;;5166899;27;19911;-48
2022/10/13 03:23:10;;;;;;;;;;;26.70;93.70;;;;;;5166936;27;19911;-57
2022/10/13 03:25:36;;;;;;;;;;;26.60;93.70;;;;;;5166728;27;19978;-47
2022/10/13 03:28:02;;;;;;;;;;;26.60;93.70;;;;;;5166959;27;19907;-44
2022/10/13 03:30:28;;;;;;;;;;;26.60;93.70;;;;;;5166769;27;19907;-47
2022/10/13 03:32:54;;;;;;;;;;;26.60;93.80;;;;;;5166320;27;19929;-55
2022/10/13 03:35:20;;;;;;;;;;;26.60;93.80;;;;;;5166747;27;19918;-45
2022/10/13 03:37:47;;;;;;;;;;;26.60;93.70;;;;;;5166693;27;19910;-47
2022/10/13 03:40:13;;;;;;;;;;;26.60;93.70;;;;;;5166579;27;19918;-49
2022/10/13 03:42:39;;;;;;;;;;;26.60;93.60;;;;;;5166408;27;19995;-48
2022/10/13 03:45:05;;;;;;;;;;;26.60;93.70;;;;;;5166516;27;19911;-51
2022/10/13 03:47:34;;;;;;;;;;;26.60;93.80;;;;;;5166617;27;19903;-45
2022/10/13 03:50:00;;;;;;;;;;;26.60;93.70;;;;;;5166712;27;20231;-52
2022/10/13 03:52:26;;;;;;;;;;;26.60;93.70;;;;;;5166134;27;19946;-47
2022/10/13 03:54:52;;;;;;;;;;;26.60;93.80;;;;;;5166918;27;19907;-49
2022/10/13 03:57:18;;;;;;;;;;;26.60;93.80;;;;;;5166489;27;19911;-51
2022/10/13 03:59:44;;;;;;;;;;;26.60;93.80;;;;;;5166751;27;20184;-45
2022/10/13 04:02:10;;;;;;;;;;;26.60;93.80;;;;;;5166386;27;19915;-45
2022/10/13 04:04:37;;;;;;;;;;;26.60;93.80;;;;;;5166495;27;19911;-48
2022/10/13 04:07:04;;;;;;;;;;;26.60;93.90;;;;;;5166261;27;19907;-45
2022/10/13 04:09:30;;;;;;;;;;;26.60;93.80;;;;;;5166623;27;19930;-47
2022/10/13 04:11:57;;;;;;;;;;;26.60;93.80;;;;;;5166072;27;19907;-47
2022/10/13 04:14:23;;;;;;;;;;;26.60;93.80;;;;;;5166654;27;19903;-45
2022/10/13 04:16:49;;;;;;;;;;;26.50;93.80;;;;;;5166028;27;20129;-46
2022/10/13 04:19:15;;;;;;;;;;;26.60;93.90;;;;;;5166284;27;19942;-51
2022/10/13 04:21:42;;;;;;;;;;;26.50;93.90;;;;;;5166014;27;19918;-49
2022/10/13 04:24:09;;;;;;;;;;;26.50;93.90;;;;;;5139506;27;19984;-47
2022/10/13 04:26:35;;;;;;;;;;;26.50;93.80;;;;;;5047523;28;20079;-52
2022/10/13 04:29:03;;;;;;;;;;;26.50;93.90;;;;;;5056265;27;19917;-49
2022/10/13 04:31:29;;;;;;;;;;;26.50;94.00;;;;;;5041107;28;20214;-48
2022/10/13 04:33:55;;;;;;;;;;;26.50;94.10;;;;;;5050787;28;19917;-52
2022/10/13 04:36:22;;;;;;;;;;;26.50;94.10;;;;;;5042425;28;19917;-46
2022/10/13 04:38:48;;;;;;;;;;;26.50;94.10;;;;;;5041280;28;19909;-49
2022/10/13 04:41:15;;;;;;;;;;;26.50;94.10;;;;;;5040968;28;19913;-51
2022/10/13 04:43:42;;;;;;;;;;;26.50;94.10;;;;;;5041069;28;19916;-50
2022/10/13 04:46:16;;;;;;;;;;;26.50;94.10;;;;;;5041135;28;20197;-50
2022/10/13 04:48:42;;;;;;;;;;;26.50;94.10;;;;;;5040873;28;19913;-46
2022/10/13 04:51:16;;;;;;;;;;;26.50;94.10;;;;;;5040836;28;19919;-48
2022/10/13 04:53:42;;;;;;;;;;;26.50;94.20;;;;;;5041019;28;19905;-49
2022/10/13 04:56:10;;;;;;;;;;;26.50;94.20;;;;;;5040796;28;20244;-49
2022/10/13 04:58:36;;;;;;;;;;;26.50;94.20;;;;;;5040905;28;19966;-45
2022/10/13 05:01:04;;;;;;;;;;;26.50;94.20;;;;;;5040714;28;19916;-47
2022/10/13 05:03:30;;;;;;;;;;;26.50;94.20;;;;;;5092450;27;19911;-46
2022/10/13 05:05:56;;;;;;;;;;;26.50;94.20;;;;;;5169530;27;19907;-45
2022/10/13 05:08:23;;;;;;;;;;;26.50;94.20;;;;;;5169502;27;19907;-52
2022/10/13 05:10:56;;;;;;;;;;;26.50;94.20;;;;;;5169453;27;20141;-48
2022/10/13 05:13:22;;;;;;;;;;;26.50;94.20;;;;;;5169496;27;19910;-47
2022/10/13 05:15:48;;;;;;;;;;;26.40;94.10;;;;;;5169425;27;19956;-47
2022/10/13 05:18:15;;;;;;;;;;;26.40;94.10;;;;;;5169343;27;19914;-50
2022/10/13 05:20:41;;;;;;;;;;;26.40;94.10;;;;;;5169261;27;20103;-45
2022/10/13 05:23:07;;;;;;;;;;;26.40;94.00;;;;;;5169387;27;19978;-48
2022/10/13 05:25:35;;;;;;;;;;;26.40;94.00;;;;;;5159231;27;19930;-46
2022/10/13 05:28:02;;;;;;;;;;;26.40;94.00;;;;;;5169143;27;19915;-48
2022/10/13 05:30:28;;;;;;;;;;;26.40;93.90;;;;;;5169125;27;19907;-48
2022/10/13 05:32:54;;;;;;;;;;;26.40;93.90;;;;;;5158755;27;19919;-48
2022/10/13 05:35:22;;;;;;;;;;;26.40;93.90;;;;;;5169059;27;19911;-47
2022/10/13 05:37:48;;;;;;;;;;;26.40;93.90;;;;;;5168855;27;19907;-49
2022/10/13 05:40:14;;;;;;;;;;;26.40;94.00;;;;;;5168740;27;19911;-52
2022/10/13 05:42:40;;;;;;;;;;;26.40;93.90;;;;;;5168772;27;19914;-47
2022/10/13 05:45:10;;;;;;;;;;;26.40;93.90;;;;;;5168730;27;19952;-53
2022/10/13 05:47:36;;;;;;;;;;;26.40;93.90;;;;;;5168518;27;19907;-55
2022/10/13 05:50:02;;;;;;;;;;;26.40;94.00;;;;;;5168869;27;19911;-47
2022/10/13 05:52:31;;;;;;;;;;;26.30;93.90;;;;;;5168670;27;20200;-48
2022/10/13 05:54:59;;;;;;;;;;;26.30;94.00;;;;;;5169026;27;19970;-52
2022/10/13 05:57:30;;;;;;;;;;;26.40;94.00;;;;;;5168620;27;19942;-47
2022/10/13 06:00:01;;;;;;;;;;;26.30;94.20;;;;;;5169016;27;19970;-49
2022/10/13 06:02:33;;;;;;;7.40;1.52;;;26.30;94.00;;;;;;5167928;27;20054;-54
2022/10/13 06:05:02;;;;;;;8.30;1.60;;;26.30;94.00;;;;;;5168153;27;20026;-48
2022/10/13 06:07:29;;;;;;;9.95;1.63;;;26.30;94.00;;;;;;5145861;27;20377;-47
2022/10/13 06:09:57;;;;;;;7.78;1.70;;;26.30;94.00;;;;;;5098701;27;20027;-47
2022/10/13 06:12:24;;;;;;;9.07;1.48;;;26.30;94.00;;;;;;5062760;28;20044;-49
2022/10/13 06:14:50;;;;;;;9.32;1.40;;;26.30;94.00;;;;;;5062747;28;20025;-46
2022/10/13 06:17:17;;;;;;;13.05;1.65;;;26.30;94.00;;;;;;5062380;28;20021;-48
2022/10/13 06:19:44;;;;;;;10.90;1.70;;;26.30;94.00;;;;;;5062930;28;20029;-48
2022/10/13 06:22:10;;;;;;;9.90;1.70;;;26.30;94.00;;;;;;5062369;28;20092;-47
2022/10/13 06:24:37;;;;;;;9.70;1.80;;;26.30;94.10;;;;;;5062641;28;20032;-52
2022/10/13 06:27:03;;;;;;;6.68;1.60;;;26.30;94.10;;;;;;5062367;28;20084;-50
2022/10/13 06:29:32;;;;;;;7.70;1.50;;;26.30;94.10;;;;;;5062840;28;20023;-51
2022/10/13 06:31:58;;;;;;;10.68;1.90;;;26.30;94.10;;;;;;5061950;28;20052;-46
2022/10/13 06:34:25;;;;;;;12.75;1.48;;;26.30;94.10;;;;;;5062682;28;20020;-46
2022/10/13 06:36:51;;;;;;;10.18;1.40;;;26.20;94.00;;;;;;5062192;28;20092;-47
2022/10/13 06:39:18;;;;;;;6.47;1.25;;;26.20;93.90;;;;;;5062454;28;20037;-50
2022/10/13 06:41:44;;;;;;;12.25;1.85;;;26.20;94.00;;;;;;5062055;28;20305;-47
2022/10/13 06:44:11;;;;;;;8.48;1.90;;;26.20;94.00;;;;;;5062606;28;20057;-43
2022/10/13 06:46:37;;;;;;;12.13;1.42;;;26.20;94.00;;;;;;5061927;28;20328;-46
2022/10/13 06:49:04;;;;;;;7.38;1.50;;;26.20;94.00;;;;;;5062032;28;20028;-51
2022/10/13 06:51:31;;;;;;;9.07;1.48;;;26.20;93.90;;;;;;5062096;28;20025;-50
2022/10/13 06:53:57;;;;;;;8.10;1.52;;;26.10;93.90;;;;;;5062048;28;20061;-52
2022/10/13 06:56:24;;;;;;;8.40;1.52;;;26.20;93.90;;;;;;5062058;28;20041;-48
2022/10/13 06:58:50;;;;;;;9.48;1.80;;;26.20;93.90;;;;;;5062188;28;20056;-47
2022/10/13 07:01:17;;;;;;;6.70;1.60;;;26.20;93.90;;;;;;5061752;28;20029;-46
2022/10/13 07:03:43;;;;;;;6.15;1.30;;;26.10;93.80;;;;;;5061908;28;20033;-51
2022/10/13 07:06:10;;;;;;;10.70;1.63;;;26.10;93.70;;;;;;5061709;28;20057;-42
2022/10/13 07:08:37;;;;;;;10.02;1.65;;;26.10;93.70;;;;;;5061905;28;20298;-47
2022/10/13 07:11:12;;;;;;;6.63;1.30;;;26.10;93.70;;;;;;5061574;28;20036;-45
2022/10/13 07:13:39;;;;;;;4.18;1.17;;;26.10;93.60;;;;;;5061873;28;20029;-48
2022/10/13 07:16:06;;;;;;;7.93;1.50;;;26.10;93.60;;;;;;5061379;28;20049;-52
2022/10/13 07:18:33;;;;;;;10.18;1.45;;;26.10;93.50;;;;;;5061737;28;20020;-45
2022/10/13 07:21:00;;;;;;;5.75;1.20;;;26.10;93.60;;;;;;5061515;28;20041;-45
2022/10/13 07:23:27;;;;;;;10.23;1.40;;;26.10;93.50;;;;;;5061478;28;20029;-46
2022/10/13 07:25:56;;;;;;;7.35;1.20;;;26.10;93.50;;;;;;5061494;28;20385;-44
2022/10/13 07:28:26;;;;;;;7.32;1.33;;;26.10;93.50;;;;;;5060928;28;20043;-44
2022/10/13 07:30:52;;;;;;;;;;;26.10;93.60;;;;;;5061477;28;19943;-43
2022/10/13 07:33:19;;;;;;;;;;;26.10;93.60;;;;;;5061408;28;19912;-49
2022/10/13 07:35:45;;;;;;;;;;;26.10;93.60;;;;;;5061759;28;19905;-45
2022/10/13 07:38:12;;;;;;;;;;;26.10;93.60;;;;;;5061493;28;19905;-50
2022/10/13 07:40:39;;;;;;;;;;;26.10;93.70;;;;;;5061651;28;20162;-47
2022/10/13 07:43:05;;;;;;;;;;;26.10;93.70;;;;;;5061446;28;19905;-49
2022/10/13 07:45:31;;;;;;;;;;;26.10;93.70;;;;;;5061512;28;19984;-50
2022/10/13 07:47:57;;;;;;;;;;;26.10;93.70;;;;;;5061547;28;19935;-50
2022/10/13 07:50:24;;;;;;;;;;;26.00;93.70;;;;;;5061504;28;20112;-55
2022/10/13 07:52:50;;;;;;;;;;;26.00;93.80;;;;;;5061487;27;20194;-50
2022/10/13 07:55:16;;;;;;;;;;;26.00;93.80;;;;;;5061381;28;19952;-48
2022/10/13 07:57:42;;;;;;;;;;;26.00;93.70;;;;;;5061330;27;19904;-45
2022/10/13 08:00:09;;;;;;;;;;;26.00;93.70;;;;;;5061388;28;20212;-47
2022/10/13 08:02:35;;;;;;;;;;;26.00;93.70;;;;;;5061420;28;19931;-49
2022/10/13 08:05:02;;;;;;;;;;;26.00;93.70;;;;;;5061302;28;20186;-46
2022/10/13 08:07:28;;;;;;;;;;;26.00;93.70;;;;;;5061449;28;19901;-50
2022/10/13 08:09:54;;;;;;;;;;;25.90;93.60;;;;;;5061599;28;19905;-57
2022/10/13 08:12:21;;;;;;;;;;;26.00;93.70;;;;;;5061115;28;19912;-50
2022/10/13 08:14:49;;;;;;;;;;;26.00;93.90;;;;;;5061464;28;19905;-52
2022/10/13 08:17:16;;;;;;;;;;;25.90;93.60;;;;;;5061042;28;19909;-46
2022/10/13 08:19:42;;;;;;;;;;;25.90;93.60;;;;;;5061497;28;19907;-46
2022/10/13 08:22:09;;;;;;;;;;;25.90;93.60;;;;;;5061127;28;19913;-48
2022/10/13 08:24:35;;;;;;;;;;;25.90;93.60;;;;;;5061245;28;19909;-49
2022/10/13 08:27:01;;;;;;;;;;;25.90;93.60;;;;;;5061069;28;19908;-55
2022/10/13 08:29:27;;;;;;;;;;;25.90;93.50;;;;;;5060988;28;19913;-59
2022/10/13 08:31:54;;;;;;;;;;;25.90;93.60;;;;;;5060611;28;20209;-52
2022/10/13 08:34:23;;;;;;;;;;;25.90;93.50;;;;;;5061339;28;19912;-53
2022/10/13 08:36:52;;;;;;;;;;;25.90;93.40;;;;;;5060951;28;19911;-53
2022/10/13 08:39:18;;;;;;;;;;;25.80;93.40;;;;;;5062117;28;20130;-54
2022/10/13 08:41:44;;;;;;;;;;;25.90;93.40;;;;;;5064452;28;19940;-44
2022/10/13 08:44:13;;;;;;;;;;;25.80;93.40;;;;;;5064615;28;19912;-49
2022/10/13 08:46:43;;;;;;;;;;;25.80;93.40;;;;;;5064561;28;20193;-47
2022/10/13 08:49:10;;;;;;;;;;;25.90;93.50;;;;;;5064653;28;19916;-48
2022/10/13 08:51:36;;;;;;;;;;;25.80;93.40;;;;;;5064375;28;20104;-48
2022/10/13 08:54:03;;;;;;;;;;;25.80;93.40;;;;;;5064412;28;19912;-44
2022/10/13 08:56:31;;;;;;;;;;;25.80;93.40;;;;;;5064275;28;20197;-50
2022/10/13 08:58:57;;;;;;;;;;;25.80;93.30;;;;;;5064389;28;19911;-47
2022/10/13 09:01:27;;;;;;;;;;;25.80;93.20;;;;;;5064220;28;19980;-49
2022/10/13 09:04:08;;;;;;;;;;;25.80;93.10;;;;;;5064208;28;19909;-48
2022/10/13 09:06:43;;;;;;;;;;;25.80;93.00;;;;;;5063865;28;19905;-47
2022/10/13 09:09:10;;;;;;;;;;;25.80;93.00;;;;;;5064323;28;19911;-48
2022/10/13 09:11:38;;;;;;;;;;;25.80;93.10;;;;;;5064005;28;19905;-49
2022/10/13 09:14:06;;;;;;;;;;;25.80;93.10;;;;;;5063976;28;19905;-52
2022/10/13 09:16:40;;;;;;;;;;;25.80;93.10;;;;;;5063901;28;19912;-51
2022/10/13 09:19:18;;;;;;;;;;;25.80;93.10;;;;;;5147156;27;19948;-45
2022/10/13 09:21:44;;;;;;;;;;;25.80;93.10;;;;;;5169212;27;20122;-48
2022/10/13 09:24:15;;;;;;;;;;;25.80;93.10;;;;;;5169595;27;19907;-44
2022/10/13 09:26:42;;;;;;;;;;;25.70;93.10;;;;;;5169021;27;19934;-48
2022/10/13 09:29:09;;;;;;;;;;;25.70;93.10;;;;;;5169464;27;19966;-50
2022/10/13 09:31:36;;;;;;;;;;;25.70;93.00;;;;;;5169103;27;19915;-47
2022/10/13 09:34:11;;;;;;;;;;;25.70;93.00;;;;;;5169191;27;19903;-47
2022/10/13 09:36:37;;;;;;;;;;;25.70;93.00;;;;;;5169077;27;19942;-53
2022/10/13 09:39:14;;;;;;;;;;;25.70;93.00;;;;;;5169296;27;19907;-56
2022/10/13 09:41:43;;;;;;;;;;;25.70;93.10;;;;;;5169126;27;20080;-56
2022/10/13 09:44:11;;;;;;;;;;;25.70;93.00;;;;;;5169261;27;19906;-47
2022/10/13 09:46:43;;;;;;;;;;;25.70;92.90;;;;;;5168692;27;19944;-48
2022/10/13 09:49:28;;;;;;;;;;;25.70;92.90;;;;;;5169170;27;19909;-49
2022/10/13 09:51:59;;;;;;;;;;;25.70;92.80;;;;;;5168633;27;20188;-51
2022/10/13 09:54:25;;;;;;;;;;;25.70;92.90;;;;;;5159255;27;19910;-52
2022/10/13 09:57:00;;;;;;;;;;;25.70;92.90;;;;;;5168593;27;19930;-44
2022/10/13 09:59:32;;;;;;;;;;;25.70;92.80;;;;;;5168900;27;19903;-46
2022/10/13 10:02:00;;;;;;;;;;;25.70;92.80;;;;;;5158506;27;20153;-47
2022/10/13 10:04:30;;;;;;;;;;;25.70;92.90;;;;;;5081035;27;19947;-47
2022/10/13 10:06:57;;;;;;;;;;;25.70;92.90;;;;;;5063113;28;19920;-44
2022/10/13 10:09:40;;;;;;;;;;;25.70;92.90;;;;;;5063414;28;20255;-51
2022/10/13 10:12:10;;;;;;;;;;;25.70;92.90;;;;;;5063113;28;19946;-50
2022/10/13 10:14:37;;;;;;;;;;;25.70;92.90;;;;;;5063434;28;19944;-47
2022/10/13 10:17:21;;;;;;;;;;;25.70;93.00;;;;;;5062945;28;20193;-53
2022/10/13 10:19:48;;;;;;;;;;;25.70;93.20;;;;;;5063408;28;19905;-52
2022/10/13 10:22:16;;;;;;;;;;;25.60;93.00;;;;;;5063062;28;19953;-46
2022/10/13 10:24:51;;;;;;;;;;;25.60;93.10;;;;;;5063218;28;20284;-46
2022/10/13 10:27:20;;;;;;;;;;;25.70;93.10;;;;;;5046434;28;20189;-50
2022/10/13 10:30:00;;;;;;;;;;;25.60;93.10;;;;;;5042745;28;19905;-51
2022/10/13 10:32:26;;;;;;;;;;;25.60;93.10;;;;;;5043795;28;19935;-46
2022/10/13 10:34:58;;;;;;;;;;;25.60;93.10;;;;;;5160597;27;20082;-50
2022/10/13 10:37:24;;;;;;;;;;;25.60;93.10;;;;;;5167849;27;19918;-50
2022/10/13 10:40:09;;;;;;;;;;;25.60;93.10;;;;;;5168199;27;19903;-46
2022/10/13 10:42:46;;;;;;;;;;;25.60;93.20;;;;;;5149030;27;19911;-49
2022/10/13 10:45:16;;;;;;;;;;;25.60;93.20;;;;;;5163018;27;20221;-44
2022/10/13 10:47:43;;;;;;;;;;;25.60;93.20;;;;;;5167471;27;20112;-49
2022/10/13 10:50:12;;;;;;;;;;;25.60;93.20;;;;;;5167453;27;19907;-44
2022/10/13 10:52:48;;;;;;;;;;;25.50;93.30;;;;;;5167557;27;19903;-49
2022/10/13 10:55:20;;;;;;;;;;;25.60;93.30;;;;;;5167418;27;19914;-46
2022/10/13 10:57:50;;;;;;;;;;;25.60;93.40;;;;;;5138434;27;20101;-49
2022/10/13 11:00:21;;;;;;;;;;;25.50;93.40;;;;;;5072224;27;19909;-47
2022/10/13 11:02:58;;;;;;;;;;;25.50;93.40;;;;;;5099061;27;20157;-52
2022/10/13 11:05:24;;;;;;;;;;;25.60;93.50;;;;;;5092240;27;19979;-49
2022/10/13 11:07:51;;;;;;;;;;;25.60;93.60;;;;;;5126480;27;19910;-52
2022/10/13 11:10:20;;;;;;;;;;;25.60;93.90;;;;;;5167079;27;20103;-54
2022/10/13 11:12:47;;;;;;;;;;;25.50;94.00;;;;;;5167292;27;19906;-50
2022/10/13 11:15:21;;;;;;;;;;;25.60;94.10;;;;;;5137478;27;20134;-58
2022/10/13 11:17:47;;;;;;;;;;;25.50;94.20;;;;;;5166669;27;19899;-51
2022/10/13 11:20:19;;;;;;;;;;;25.60;94.20;;;;;;5147969;27;19953;-47
2022/10/13 11:22:58;;;;;;;;;;;25.60;94.10;;;;;;5166728;27;19926;-48
2022/10/13 11:25:43;;;;;;;;;;;25.60;94.10;;;;;;5165370;27;19942;-48
2022/10/13 11:28:21;;;;;;;;;;;25.60;94.20;;;;;;5166587;27;19903;-51
2022/10/13 11:30:51;;;;;;;;;;;25.60;94.00;;;;;;5166667;27;19942;-50
2022/10/13 11:33:36;;;;;;;;;;;25.60;94.10;;;;;;5166719;27;19910;-54
2022/10/13 11:36:20;;;;;;;;;;;25.60;94.10;;;;;;5166527;27;19911;-47
2022/10/13 11:38:50;;;;;;;;;;;25.60;93.90;;;;;;5166876;27;19899;-47
2022/10/13 11:41:23;;;;;;;;;;;25.60;93.80;;;;;;5166496;27;19906;-47
2022/10/13 11:43:51;;;;;;;;;;;25.60;93.70;;;;;;5166855;27;19977;-49
2022/10/13 11:46:23;;;;;;;;;;;25.70;93.60;;;;;;5166491;27;19907;-45
2022/10/13 11:48:59;;;;;;;;;;;25.70;93.60;;;;;;5166492;27;19903;-46
2022/10/13 11:51:31;;;;;;;;;;;25.70;93.70;;;;;;5166441;27;20236;-49
2022/10/13 11:54:03;;;;;;;;;;;25.70;93.60;;;;;;5147998;27;19909;-50
2022/10/13 11:56:32;;;;;;;;;;;25.70;93.60;;;;;;5166469;27;19907;-51
2022/10/13 11:58:58;;;;;;;;;;;25.70;93.70;;;;;;5166634;27;19899;-49
2022/10/13 12:01:25;;;;;;;;;;;25.70;93.70;;;;;;5166103;27;19907;-52
2022/10/13 12:03:51;;;;;;;;;;;25.70;93.70;;;;;;5166503;27;20143;-55
2022/10/13 12:06:31;;;;;;;;;;;25.80;93.70;;;;;;5166360;27;19945;-45
2022/10/13 12:09:00;;;;;;;;;;;25.80;93.90;;;;;;5166511;27;20170;-46
2022/10/13 12:11:28;;;;;;;;;;;25.80;93.80;;;;;;5166356;27;19907;-43
2022/10/13 12:13:54;;;;;;;;;;;25.80;93.80;;;;;;5166125;27;19903;-46
2022/10/13 12:16:20;;;;;;;;;;;25.90;93.80;;;;;;5166222;27;19907;-50
2022/10/13 12:18:47;;;;;;;;;;;25.90;93.90;;;;;;5166345;27;19903;-48
2022/10/13 12:21:16;;;;;;;;;;;25.90;93.90;;;;;;5166171;27;19903;-50
2022/10/13 12:23:42;;;;;;;;;;;25.90;93.90;;;;;;5166212;27;19951;-48
2022/10/13 12:26:14;;;;;;;;;;;26.00;93.90;;;;;;5166164;27;19907;-47
2022/10/13 12:28:51;;;;;;;;;;;26.00;94.00;;;;;;5166120;27;20227;-47
2022/10/13 12:31:25;;;;;;;;;;;26.00;94.00;;;;;;5165930;27;19926;-45
2022/10/13 12:33:58;;;;;;;;;;;26.00;94.00;;;;;;5166196;27;19978;-49
2022/10/13 12:36:29;;;;;;;;;;;26.00;94.00;;;;;;5165953;27;19982;-49
2022/10/13 12:38:58;;;;;;;;;;;26.00;94.00;;;;;;5166123;27;19903;-50
2022/10/13 12:41:35;;;;;;;;;;;26.00;94.10;;;;;;5165811;27;19944;-47
2022/10/13 12:44:02;;;;;;;;;;;26.10;94.10;;;;;;5166144;27;19973;-47
2022/10/13 12:46:35;;;;;;;;;;;26.10;94.10;;;;;;5165890;27;19907;-48
2022/10/13 12:49:05;;;;;;;;;;;26.10;94.10;;;;;;5166223;27;19906;-45
2022/10/13 12:51:33;;;;;;;;;;;26.10;94.10;;;;;;5165818;27;19929;-49
2022/10/13 12:53:59;;;;;;;;;;;26.10;94.10;;;;;;5165918;27;19953;-45
2022/10/13 12:56:26;;;;;;;;;;;26.10;94.10;;;;;;5085346;27;19909;-46
2022/10/13 12:58:52;;;;;;;;;;;26.10;94.20;;;;;;5041057;28;19905;-44
2022/10/13 13:01:29;;;;;;;;;;;26.20;94.20;;;;;;5040701;28;19951;-48
2022/10/13 13:03:57;;;;;;;;;;;26.20;94.10;;;;;;5040831;28;19913;-46
2022/10/13 13:06:30;;;;;;;;;;;26.20;94.10;;;;;;5040708;28;19941;-45
2022/10/13 13:09:07;;;;;;;;;;;26.20;94.30;;;;;;5040863;28;20007;-43
2022/10/13 13:11:34;;;;;;;;;;;26.20;94.50;;;;;;5040658;28;19909;-50
2022/10/13 13:14:19;;;;;;;;;;;26.30;94.30;;;;;;5039336;28;19905;-51
2022/10/13 13:17:21;;;;;;;;;;;26.20;94.40;;;;;;5022865;28;19909;-58
2022/10/13 13:19:49;;;;;;;;;;;26.30;94.40;;;;;;5082027;28;19904;-52
2022/10/13 13:22:15;;;;;;;;;;;26.30;94.40;;;;;;5048084;28;20189;-54
2022/10/13 13:24:41;;;;;;;;;;;26.30;94.40;;;;;;5041064;28;19901;-52
2022/10/13 13:27:18;;;;;;;;;;;26.30;94.40;;;;;;5043926;28;19909;-43
2022/10/13 13:29:44;;;;;;;;;;;26.30;94.40;;;;;;5044069;28;19912;-46
2022/10/13 13:32:14;;;;;;;;;;;26.40;94.40;;;;;;5043641;28;19924;-46
2022/10/13 13:34:42;;;;;;;;;;;26.40;94.40;;;;;;5026399;28;20177;-50
2022/10/13 13:37:28;;;;;;;;;;;26.40;94.50;;;;;;5043601;28;20193;-52
2022/10/13 13:39:55;;;;;;;;;;;26.40;94.40;;;;;;5043833;28;19917;-45
2022/10/13 13:42:21;;;;;;;;;;;26.50;94.40;;;;;;5042220;28;20197;-43
2022/10/13 13:44:47;;;;;;;;;;;26.50;94.40;;;;;;5044108;28;19905;-47
2022/10/13 13:47:18;;;;;;;;;;;26.50;94.40;;;;;;5043616;28;20185;-45
2022/10/13 13:49:44;;;;;;;;;;;26.50;94.40;;;;;;5043940;28;19905;-50
2022/10/13 13:52:10;;;;;;;;;;;26.60;94.40;;;;;;5043383;28;20105;-48
2022/10/13 13:54:36;;;;;;;;;;;26.50;94.30;;;;;;5043895;28;19905;-50
2022/10/13 13:57:03;;;;;;;;;;;26.60;94.30;;;;;;5043308;28;19916;-50
2022/10/13 13:59:29;;;;;;;;;;;26.60;94.20;;;;;;5043824;28;19901;-48
2022/10/13 14:01:55;;;;;;;;;;;26.60;94.20;;;;;;5043253;28;19940;-47
2022/10/13 14:04:21;;;;;;;;;;;26.60;94.20;;;;;;5043605;28;19909;-57
2022/10/13 14:06:47;;;;;;;;;;;26.70;93.80;;;;;;5043414;28;20212;-60
2022/10/13 14:09:13;;;;;;;;;;;26.70;94.00;;;;;;5043811;28;19936;-56
2022/10/13 14:11:39;;;;;;;;;;;26.70;93.90;;;;;;5043285;28;19909;-53
2022/10/13 14:14:08;;;;;;;;;;;26.70;93.80;;;;;;5043307;28;19905;-46
2022/10/13 14:16:34;;;;;;;;;;;26.70;93.90;;;;;;5025348;28;19909;-47